Spar Draco — LAFO6 — position and weather

sailwx.info

Track history (hours):
 
Tides and Currents Weather Stations Pressure Air Temp Water Temp Dewpoint Dewpoint Depression Visibility Wind Speed Wind Dir Waves Ship Positions

Spar Draco

Last reported at 2015-May-20 11:06 UTC. Time now 2015-May-29 14:19 UTC.
Position N 35°60' W 005°28'.
Warning: this ship's position is 9 days out of date.

Length 190 m; draft 11.2 m.

Type: Cargo ship. MMSI: 257799000.

Date/timePositionNaut miles runAvg speedWind from/ knotsBaromVisibWave heightAir tempDewpointWater temp
2015-May-20 11:06N 35°60' W 005°28'5 9.1
2015-May-20 10:33N 36°02' W 005°22'6 5.6
2015-May-20 09:33N 36°07' W 005°19'5 5.2
2015-May-20 08:33N 36°08' W 005°12'10811.5
2015-May-19 23:08N 36°19' W 002°58'710.8
2015-May-19 22:30N 36°20' W 002°50'1010.8
2015-May-19 21:33N 36°22' W 002°38'1111.2
2015-May-19 20:33N 36°24' W 002°24'1111.1
2015-May-19 19:33N 36°27' W 002°10'1211.3
2015-May-19 18:29N 36°36' W 002°01'1011.1
2015-May-19 17:33N 36°45' W 001°54'1111.1
2015-May-19 16:33N 36°55' W 001°48'  
2015-May-15 13:32N 37°12' W 001°35'2613.0
2015-May-15 11:33N 37°13' W 001°03'1313.4
2015-May-15 10:33N 37°14' W 000°46'1813.3
2015-May-15 09:12N 37°15' W 000°23'913.5
2015-May-15 08:31N 37°15' W 000°12'1813.1
2015-May-15 07:10N 37°16' E 000°10'1013.0
2015-May-15 06:22N 37°17' E 000°23'2312.6
2015-May-15 04:31N 37°18' E 000°53'1511.7
2015-May-15 03:16N 37°18' E 001°11'811.3
2015-May-15 02:33N 37°19' E 001°21'1210.9
2015-May-15 01:27N 37°20' E 001°36'1010.7
2015-May-15 00:33N 37°21' E 001°48'1111.0
2015-May-14 23:33N 37°21' E 002°02'1211.5
2015-May-14 22:33N 37°22' E 002°16'1312.2
2015-May-14 21:29N 37°22' E 002°33'1112.4
2015-May-14 20:33N 37°22' E 002°47'1312.5
2015-May-14 19:33N 37°23' E 003°03'1412.6
2015-May-14 18:28N 37°24' E 003°20'1212.4
2015-May-14 17:30N 37°24' E 003°35'1112.0
2015-May-14 16:33N 37°25' E 003°50'1512.3
2015-May-14 15:20N 37°26' E 004°08'18912.7
2015-May-14 00:28N 37°35' E 008°07'1212.6
2015-May-13 23:30N 37°35' E 008°22'7111.9
2015-May-13 17:32N 37°39' E 009°52'1211.7
2015-May-13 16:33N 37°40' E 010°07'1111.6
2015-May-13 15:34N 37°38' E 010°21'1212.0
2015-May-13 14:33N 37°35' E 010°36'1212.2
2015-May-13 13:33N 37°32' E 010°51'1512.5
2015-May-13 12:23N 37°28' E 011°08'1112.7
2015-May-13 11:33N 37°23' E 011°20'1313.3
2015-May-13 10:33N 37°20' E 011°36'1413.6
2015-May-13 09:33N 37°16' E 011°53'1312.6
2015-May-13 08:33N 37°13' E 012°08'1 0.6
2015-May-13 07:33N 37°13' E 012°08'9 9.0
2015-May-13 06:33N 37°10' E 012°19'1312.9
2015-May-13 05:33N 37°06' E 012°34'1312.7
2015-May-13 04:33N 37°01' E 012°49'1312.9
2015-May-13 03:33N 36°56' E 013°04'1312.9
2015-May-13 02:33N 36°52' E 013°19'1312.9
2015-May-13 01:33N 36°47' E 013°34'1312.6
2015-May-13 00:33N 36°43' E 013°48'1312.7
2015-May-12 23:33N 36°39' E 014°03'1313.1
2015-May-12 22:33N 36°34' E 014°19'1413.4
2015-May-12 21:33N 36°29' E 014°34'1313.1
2015-May-12 20:33N 36°27' E 014°51'47412.3
2015-May-11 06:05N 36°05' E 024°37'712.3
2015-May-11 05:33N 36°05' E 024°45'1212.6
2015-May-11 04:33N 36°05' E 025°01'1312.5
2015-May-11 03:33N 36°06' E 025°16'1212.2
2015-May-11 02:33N 36°06' E 025°32'1211.8
2015-May-11 01:33N 36°07' E 025°46'1212.0
2015-May-11 00:33N 36°07' E 026°01'1211.7
2015-May-10 23:33N 36°08' E 026°16'1211.8
2015-May-10 22:33N 36°06' E 026°30'1111.6
2015-May-10 21:33N 36°04' E 026°44'1111.2
2015-May-10 20:33N 36°02' E 026°58'  
Track history (hours):
 
Tides and Currents Weather Stations Pressure Air Temp Water Temp Dewpoint Dewpoint Depression Visibility Wind Speed Wind Dir Waves Ship Positions

Spar Draco

Last reported at 2015-May-20 11:06 UTC. Time now 2015-May-29 14:19 UTC.
Position N 35°60' W 005°28'.
Warning: this ship's position is 9 days out of date.

Length 190 m; draft 11.2 m.

Type: Cargo ship. MMSI: 257799000.

Date/timePositionNaut miles runAvg speedWind from/ knotsBaromVisibWave heightAir tempDewpointWater temp
2015-May-20 11:06N 35°60' W 005°28'5 9.1
2015-May-20 10:33N 36°02' W 005°22'6 5.6
2015-May-20 09:33N 36°07' W 005°19'5 5.2
2015-May-20 08:33N 36°08' W 005°12'10811.5
2015-May-19 23:08N 36°19' W 002°58'710.8
2015-May-19 22:30N 36°20' W 002°50'1010.8
2015-May-19 21:33N 36°22' W 002°38'1111.2
2015-May-19 20:33N 36°24' W 002°24'1111.1
2015-May-19 19:33N 36°27' W 002°10'1211.3
2015-May-19 18:29N 36°36' W 002°01'1011.1
2015-May-19 17:33N 36°45' W 001°54'1111.1
2015-May-19 16:33N 36°55' W 001°48'  
2015-May-15 13:32N 37°12' W 001°35'2613.0
2015-May-15 11:33N 37°13' W 001°03'1313.4
2015-May-15 10:33N 37°14' W 000°46'1813.3
2015-May-15 09:12N 37°15' W 000°23'913.5
2015-May-15 08:31N 37°15' W 000°12'1813.1
2015-May-15 07:10N 37°16' E 000°10'1013.0
2015-May-15 06:22N 37°17' E 000°23'2312.6
2015-May-15 04:31N 37°18' E 000°53'1511.7
2015-May-15 03:16N 37°18' E 001°11'811.3
2015-May-15 02:33N 37°19' E 001°21'1210.9
2015-May-15 01:27N 37°20' E 001°36'1010.7
2015-May-15 00:33N 37°21' E 001°48'1111.0
2015-May-14 23:33N 37°21' E 002°02'1211.5
2015-May-14 22:33N 37°22' E 002°16'1312.2
2015-May-14 21:29N 37°22' E 002°33'1112.4
2015-May-14 20:33N 37°22' E 002°47'1312.5
2015-May-14 19:33N 37°23' E 003°03'1412.6
2015-May-14 18:28N 37°24' E 003°20'1212.4
2015-May-14 17:30N 37°24' E 003°35'1112.0
2015-May-14 16:33N 37°25' E 003°50'1512.3
2015-May-14 15:20N 37°26' E 004°08'18912.7
2015-May-14 00:28N 37°35' E 008°07'1212.6
2015-May-13 23:30N 37°35' E 008°22'7111.9
2015-May-13 17:32N 37°39' E 009°52'1211.7
2015-May-13 16:33N 37°40' E 010°07'1111.6
2015-May-13 15:34N 37°38' E 010°21'1212.0
2015-May-13 14:33N 37°35' E 010°36'1212.2
2015-May-13 13:33N 37°32' E 010°51'1512.5
2015-May-13 12:23N 37°28' E 011°08'1112.7
2015-May-13 11:33N 37°23' E 011°20'1313.3
2015-May-13 10:33N 37°20' E 011°36'1413.6
2015-May-13 09:33N 37°16' E 011°53'1312.6
2015-May-13 08:33N 37°13' E 012°08'1 0.6
2015-May-13 07:33N 37°13' E 012°08'9 9.0
2015-May-13 06:33N 37°10' E 012°19'1312.9
2015-May-13 05:33N 37°06' E 012°34'1312.7
2015-May-13 04:33N 37°01' E 012°49'1312.9
2015-May-13 03:33N 36°56' E 013°04'1312.9
2015-May-13 02:33N 36°52' E 013°19'1312.9
2015-May-13 01:33N 36°47' E 013°34'1312.6
2015-May-13 00:33N 36°43' E 013°48'1312.7
2015-May-12 23:33N 36°39' E 014°03'1313.1
2015-May-12 22:33N 36°34' E 014°19'1413.4
2015-May-12 21:33N 36°29' E 014°34'1313.1
2015-May-12 20:33N 36°27' E 014°51'47412.3
2015-May-11 06:05N 36°05' E 024°37'712.3
2015-May-11 05:33N 36°05' E 024°45'1212.6
2015-May-11 04:33N 36°05' E 025°01'1312.5
2015-May-11 03:33N 36°06' E 025°16'1212.2
2015-May-11 02:33N 36°06' E 025°32'1211.8
2015-May-11 01:33N 36°07' E 025°46'1212.0
2015-May-11 00:33N 36°07' E 026°01'1211.7
2015-May-10 23:33N 36°08' E 026°16'1211.8
2015-May-10 22:33N 36°06' E 026°30'1111.6
2015-May-10 21:33N 36°04' E 026°44'1111.2
2015-May-10 20:33N 36°02' E 026°58'  

Dump ship's entire track history